Time;durP1;ratioP1;P1;durP2;ratioP2;P2;SDS_P1;SDS_P2;PMS_P1;PMS_P2;Temp;Humidity;BMP_temperature;BMP_pressure;BME280_temperature;BME280_humidity;BME280_pressure;Samples;Min_cycle;Max_cycle;Signal;HPM_P1;HPM_P2
2023/10/01 00:00:42;;;;;;;0.30;0.30;;;;;;;13.81;100.00;101056.94;5091048;28;20020;-57
2023/10/01 00:03:08;;;;;;;0.30;0.30;;;;;;;13.77;100.00;101060.63;5091938;28;20032;-57
2023/10/01 00:05:34;;;;;;;0.30;0.30;;;;;;;13.76;100.00;101065.09;5076242;28;20036;-57
2023/10/01 00:08:00;;;;;;;0.30;0.30;;;;;;;13.73;100.00;101064.28;5072388;28;20072;-57
2023/10/01 00:10:25;;;;;;;0.40;0.40;;;;;;;13.78;100.00;101062.38;5079094;28;20052;-57
2023/10/01 00:12:53;;;;;;;0.40;0.40;;;;;;;13.78;100.00;101057.03;5092171;28;20020;-57
2023/10/01 00:15:21;;;;;;;0.30;0.30;;;;;;;13.79;100.00;101064.16;5092409;28;20039;-57
2023/10/01 00:17:50;;;;;;;0.30;0.30;;;;;;;13.74;100.00;101056.22;5092394;28;20520;-57
2023/10/01 00:22:43;;;;;;;0.40;0.40;;;;;;;13.72;100.00;101049.19;5092356;28;20026;-57
2023/10/01 00:25:09;;;;;;;0.40;0.40;;;;;;;13.70;100.00;101057.25;5089707;28;20519;-57
2023/10/01 00:27:34;;;;;;;0.30;0.30;;;;;;;13.70;100.00;101053.69;5092282;28;20024;-57
2023/10/01 00:30:00;;;;;;;0.30;0.30;;;;;;;13.68;100.00;101050.19;5092222;28;20024;-58
2023/10/01 00:32:29;;;;;;;0.40;0.40;;;;;;;13.62;100.00;101043.22;5074869;28;20170;-57
2023/10/01 00:34:57;;;;;;;0.40;0.40;;;;;;;13.69;100.00;101062.66;5078206;28;20023;-57
2023/10/01 00:37:23;;;;;;;0.40;0.40;;;;;;;13.68;100.00;101060.88;5083472;28;20024;-57
2023/10/01 00:39:48;;;;;;;0.40;0.40;;;;;;;13.64;100.00;101049.38;5070333;28;20476;-57
2023/10/01 00:42:14;;;;;;;0.40;0.40;;;;;;;13.63;100.00;101049.44;5088962;28;20036;-57
2023/10/01 00:44:39;;;;;;;0.40;0.40;;;;;;;13.62;100.00;101050.38;5087503;28;20035;-57
2023/10/01 00:47:05;;;;;;;0.32;0.32;;;;;;;13.61;100.00;101049.47;5079489;28;20036;-57
2023/10/01 00:49:38;;;;;;;0.40;0.40;;;;;;;13.60;100.00;101057.53;5070700;28;20025;-57
2023/10/01 00:52:10;;;;;;;0.40;0.40;;;;;;;13.51;100.00;101042.63;5082721;28;20154;-57
2023/10/01 00:54:35;;;;;;;0.30;0.30;;;;;;;13.56;100.00;101055.91;5090438;28;20099;-57
2023/10/01 00:57:01;;;;;;;0.40;0.40;;;;;;;13.58;100.00;101054.91;5090748;28;20780;-57
2023/10/01 00:59:26;;;;;;;0.40;0.40;;;;;;;13.53;100.00;101045.28;5084283;28;20040;-58
2023/10/01 01:01:53;;;;;;;0.40;0.40;;;;;;;13.57;100.00;101046.94;5078901;28;20032;-58
2023/10/01 01:04:22;;;;;;;0.40;0.40;;;;;;;13.57;100.00;101052.28;5090783;28;20024;-57
2023/10/01 01:06:50;;;;;;;0.40;0.40;;;;;;;13.54;100.00;101047.03;5091409;28;20057;-57
2023/10/01 01:09:19;;;;;;;0.40;0.40;;;;;;;13.55;100.00;101055.00;5082364;28;20112;-58
2023/10/01 01:11:48;;;;;;;0.40;0.40;;;;;;;13.54;100.00;101057.72;5085459;28;20063;-57
2023/10/01 01:14:14;;;;;;;0.40;0.40;;;;;;;13.59;100.00;101050.47;5089901;28;20038;-57
2023/10/01 01:16:40;;;;;;;0.40;0.40;;;;;;;13.52;100.00;101054.22;5088278;28;20724;-58
2023/10/01 01:19:09;;;;;;;0.40;0.40;;;;;;;13.45;100.00;101047.28;5091154;28;20024;-57
2023/10/01 01:21:34;;;;;;;0.30;0.30;;;;;;;13.40;100.00;101046.53;5080751;28;20040;-57
2023/10/01 01:24:03;;;;;;;0.50;0.50;;;;;;;13.33;100.00;101042.31;5071791;28;20028;-57
2023/10/01 01:26:29;;;;;;;0.30;0.30;;;;;;;13.32;100.00;101048.53;5088565;28;20069;-57
2023/10/01 01:28:54;;;;;;;0.40;0.40;;;;;;;13.27;100.00;101056.69;5071758;28;20032;-58
2023/10/01 01:31:26;;;;;;;0.40;0.40;;;;;;;13.29;100.00;101052.19;5070621;28;20105;-57
2023/10/01 01:33:55;;;;;;;0.40;0.40;;;;;;;13.33;100.00;101053.84;5073134;28;20472;-57
2023/10/01 01:36:21;;;;;;;0.40;0.40;;;;;;;13.33;100.00;101050.31;5073664;28;20067;-57
2023/10/01 01:39:26;;;;;;;0.40;0.40;;;;;;;13.33;100.00;101053.00;5090649;28;20442;-57
2023/10/01 01:41:51;;;;;;;0.40;0.40;;;;;;;13.33;100.00;101053.00;5085876;28;20475;-57
2023/10/01 01:44:17;;;;;;;0.40;0.40;;;;;;;13.30;100.00;101053.03;5081064;28;20032;-57
2023/10/01 01:46:49;;;;;;;0.40;0.40;;;;;;;13.23;100.00;101043.47;5088723;28;20534;-57
2023/10/01 01:49:19;;;;;;;0.40;0.40;;;;;;;13.21;100.00;101049.72;5088801;28;20069;-58
2023/10/01 01:52:03;;;;;;;0.50;0.50;;;;;;;13.20;100.00;101050.63;5087086;28;20077;-58
2023/10/01 01:54:37;;;;;;;0.43;0.43;;;;;;;13.20;100.00;101047.97;5087303;28;20578;-58
2023/10/01 01:57:03;;;;;;;0.40;0.40;;;;;;;13.12;100.00;101039.28;5089313;28;20103;-58
2023/10/01 01:59:29;;;;;;;0.40;0.40;;;;;;;13.12;100.00;101049.97;5071783;28;20526;-58
2023/10/01 02:01:56;;;;;;;0.40;0.40;;;;;;;13.10;100.00;101050.91;5069700;28;20052;-58
2023/10/01 02:04:24;;;;;;;0.40;0.40;;;;;;;13.06;100.00;101043.91;5072368;28;20039;-58
2023/10/01 02:06:50;;;;;;;0.40;0.40;;;;;;;13.05;100.00;101043.03;5069826;28;20730;-58
2023/10/01 02:09:20;;;;;;;0.40;0.40;;;;;;;13.03;100.00;101050.19;5070553;28;20446;-58
2023/10/01 02:11:49;;;;;;;0.40;0.40;;;;;;;13.01;100.00;101057.38;5086448;28;20047;-58
2023/10/01 02:14:30;;;;;;;0.50;0.50;;;;;;;12.99;100.00;101061.84;5090005;28;20761;-58
2023/10/01 02:17:15;;;;;;;0.40;0.40;;;;;;;12.99;100.00;101056.50;5089628;28;20542;-58
2023/10/01 02:19:46;;;;;;;0.40;0.40;;;;;;;13.01;100.00;101056.50;5081436;28;20047;-58
2023/10/01 02:22:12;;;;;;;0.50;0.50;;;;;;;12.96;100.00;101059.25;5087384;28;20556;-58
2023/10/01 02:27:06;;;;;;;0.50;0.50;;;;;;;12.97;100.00;101050.34;5084261;28;20036;-58
2023/10/01 02:29:32;;;;;;;0.40;0.40;;;;;;;12.94;100.00;101049.53;5069500;28;20028;-57
2023/10/01 02:32:04;;;;;;;0.40;0.40;;;;;;;12.88;100.00;101039.88;5069130;28;20147;-58
2023/10/01 02:34:31;;;;;;;0.30;0.30;;;;;;;12.87;100.00;101035.47;5078728;28;20020;-58
2023/10/01 02:36:58;;;;;;;0.50;0.50;;;;;;;12.87;100.00;101032.78;5088678;28;20068;-58
2023/10/01 02:39:32;;;;;;;0.40;0.40;;;;;;;12.84;100.00;101022.19;5088939;28;20029;-58
2023/10/01 02:44:39;;;;;;;0.40;0.40;;;;;;;12.89;100.00;101017.63;5070869;28;20028;-58
2023/10/01 02:47:23;;;;;;;0.40;0.40;;;;;;;12.96;100.00;101024.53;5068177;28;20062;-58
2023/10/01 02:49:51;;;;;;;;;;;;;;;13.00;100.00;101018.19;5071729;28;20029;-58
2023/10/01 02:52:22;;;;;;;0.40;0.40;;;;;;;13.02;100.00;101021.75;5071694;28;19920;-58
2023/10/01 02:54:54;;;;;;;0.40;0.40;;;;;;;12.97;100.00;101012.94;5074922;28;20503;-58
2023/10/01 02:57:26;;;;;;;0.50;0.50;;;;;;;13.01;100.00;101013.78;5087715;28;20016;-58
2023/10/01 03:02:41;;;;;;;0.40;0.40;;;;;;;13.06;100.00;101012.72;5089420;28;20020;-58
2023/10/01 03:05:16;;;;;;;0.40;0.40;;;;;;;13.08;100.00;101010.88;5074147;28;20025;-57
2023/10/01 03:07:45;;;;;;;0.50;0.50;;;;;;;13.13;100.00;101019.66;5068216;28;20059;-58
2023/10/01 03:10:24;;;;;;;0.40;0.40;;;;;;;13.11;100.00;101010.78;5070237;28;20090;-58
2023/10/01 03:12:50;;;;;;;0.40;0.40;;;;;;;13.08;100.00;101016.22;5078960;28;20036;-58
2023/10/01 03:17:57;;;;;;;0.40;0.40;;;;;;;12.93;100.00;101011.25;5084857;28;20473;-58
2023/10/01 03:29:13;;;;;;;0.40;0.40;;;;;;;12.72;100.00;101027.84;5075709;28;20066;-57
2023/10/01 03:31:20;;;;;;;0.50;0.50;;;;;;;12.69;100.00;101022.56;5071799;28;20036;-58
2023/10/01 03:33:45;;;;;;;0.40;0.40;;;;;;;12.61;100.00;101019.22;5074316;28;20024;-58
2023/10/01 03:36:13;;;;;;;0.50;0.50;;;;;;;12.58;100.00;101023.75;5071912;28;20033;-58
2023/10/01 03:38:39;;;;;;;0.50;0.50;;;;;;;12.54;100.00;101025.63;5074203;28;20056;-58
2023/10/01 03:41:08;;;;;;;0.40;0.40;;;;;;;12.55;100.00;101024.69;5091248;28;20078;-58
2023/10/01 03:43:35;;;;;;;0.47;0.47;;;;;;;12.50;100.00;101026.63;5091991;28;20035;-58
2023/10/01 03:46:19;;;;;;;0.43;0.43;;;;;;;12.50;100.00;101025.75;5082227;28;20063;-58
2023/10/01 03:48:58;;;;;;;0.40;0.40;;;;;;;12.46;100.00;101019.59;5093204;28;20395;-58
2023/10/01 03:54:26;;;;;;;0.50;0.50;;;;;;;12.41;100.00;101023.28;5074393;28;20097;-58
2023/10/01 03:56:58;;;;;;;0.40;0.40;;;;;;;12.34;100.00;101030.56;5091504;28;20030;-58
2023/10/01 03:59:27;;;;;;;0.43;0.43;;;;;;;12.31;100.00;101030.63;5084092;28;20119;-58
2023/10/01 04:02:27;;;;;;;0.40;0.40;;;;;;;12.34;100.00;101021.69;5071443;28;20056;-58
2023/10/01 04:04:58;;;;;;;0.50;0.50;;;;;;;12.30;100.00;101017.34;5076575;28;20500;-58
2023/10/01 04:07:40;;;;;;;0.50;0.50;;;;;;;12.26;100.00;101016.53;5071038;28;20111;-58
2023/10/01 04:10:31;;;;;;;0.40;0.40;;;;;;;12.27;100.00;101004.97;5072804;28;20036;-58
2023/10/01 04:12:58;;;;;;;0.50;0.50;;;;;;;12.21;100.00;101007.75;5091469;28;20412;-58
2023/10/01 04:15:31;;;;;;;0.50;0.50;;;;;;;12.24;100.00;101002.34;5092321;28;20024;-58
2023/10/01 04:20:48;;;;;;;;;;;;;;;12.48;100.00;101007.09;5091322;28;20375;-58
2023/10/01 04:23:30;;;;;;;0.43;0.43;;;;;;;12.55;100.00;101014.03;5090744;28;20731;-58
2023/10/01 04:26:06;;;;;;;0.50;0.50;;;;;;;12.55;100.00;101018.50;5090606;28;20036;-58
2023/10/01 04:28:35;;;;;;;0.50;0.50;;;;;;;12.60;100.00;101030.81;5073711;28;20032;-58
2023/10/01 04:31:03;;;;;;;0.50;0.50;;;;;;;12.59;100.00;101026.38;5070041;28;20021;-58
2023/10/01 04:33:30;;;;;;;0.50;0.50;;;;;;;12.56;100.00;101025.59;5072649;28;20143;-58
2023/10/01 04:35:55;;;;;;;0.40;0.40;;;;;;;12.53;100.00;101017.66;5074486;28;20042;-58
2023/10/01 04:38:32;;;;;;;0.50;0.50;;;;;;;12.48;100.00;101023.13;5090771;28;20036;-58
2023/10/01 04:41:03;;;;;;;0.50;0.50;;;;;;;12.42;100.00;101023.25;5091469;28;20028;-58
2023/10/01 04:43:42;;;;;;;0.50;0.50;;;;;;;12.35;100.00;101026.09;5076316;28;20028;-58
2023/10/01 04:46:08;;;;;;;0.50;0.50;;;;;;;12.29;100.00;101019.13;5071422;28;20033;-58
2023/10/01 04:48:36;;;;;;;0.50;0.50;;;;;;;12.25;100.00;101025.44;5071595;28;20035;-58
2023/10/01 04:51:07;;;;;;;0.50;0.50;;;;;;;12.22;100.00;101028.19;5072631;28;20436;-58
2023/10/01 04:53:33;;;;;;;0.50;0.50;;;;;;;12.20;100.00;101027.34;5071415;28;20039;-58
2023/10/01 04:56:06;;;;;;;0.40;0.40;;;;;;;12.17;100.00;101018.53;5086701;28;20090;-57
2023/10/01 04:58:36;;;;;;;0.50;0.50;;;;;;;12.17;100.00;101027.44;5091477;28;20043;-57
2023/10/01 05:01:05;;;;;;;0.50;0.50;;;;;;;12.18;100.00;101022.94;5087498;28;20051;-58
2023/10/01 05:03:40;;;;;;;0.50;0.50;;;;;;;12.20;100.00;101016.69;5091606;28;20027;-58
2023/10/01 05:06:12;;;;;;;0.50;0.50;;;;;;;12.25;100.00;101029.91;5085844;28;20092;-58
2023/10/01 05:08:42;;;;;;;0.50;0.50;;;;;;;12.30;100.00;101036.00;5071126;28;20028;-58
2023/10/01 05:11:12;;;;;;;0.50;0.50;;;;;;;12.32;100.00;101035.03;5080185;28;20402;-58
2023/10/01 05:13:42;;;;;;;0.47;0.47;;;;;;;12.30;100.00;101038.69;5091642;28;20039;-58
2023/10/01 05:16:12;;;;;;;0.50;0.50;;;;;;;12.20;100.00;101029.13;5087203;28;20032;-58
2023/10/01 05:18:39;;;;;;;0.50;0.50;;;;;;;12.07;100.00;101035.66;5090480;28;20539;-58
2023/10/01 05:21:12;;;;;;;0.50;0.50;;;;;;;12.00;100.00;101042.91;5084784;28;20036;-58
2023/10/01 05:23:39;;;;;;;0.50;0.50;;;;;;;11.93;100.00;101037.75;5069862;28;20591;-58
2023/10/01 05:26:05;;;;;;;0.50;0.50;;;;;;;11.76;100.00;101014.13;5085317;28;20047;-57
2023/10/01 05:28:31;;;;;;;0.47;0.47;;;;;;;11.93;100.00;101041.28;5074517;28;20047;-58
2023/10/01 05:31:08;;;;;;;0.50;0.50;;;;;;;11.90;100.00;101034.25;5073628;28;20096;-58
2023/10/01 05:33:34;;;;;;;0.50;0.50;;;;;;;11.91;100.00;101041.31;5074033;28;20037;-57
2023/10/01 05:36:06;;;;;;;0.50;0.50;;;;;;;11.94;100.00;101051.06;5088608;28;20062;-57
2023/10/01 05:38:35;;;;;;;0.50;0.50;;;;;;;11.95;100.00;101050.13;5088714;28;20028;-57
2023/10/01 05:41:03;;;;;;;0.45;0.45;;;;;;;11.94;100.00;101065.25;5080446;28;20032;-57
2023/10/01 05:43:38;;;;;;;0.50;0.50;;;;;;;11.90;100.00;101060.03;5090782;28;20107;-57
2023/10/01 05:46:08;;;;;;;0.50;0.50;;;;;;;11.91;100.00;101061.75;5075036;28;20131;-57
2023/10/01 05:48:39;;;;;;;0.50;0.50;;;;;;;11.86;100.00;101053.00;5069381;28;20039;-57
2023/10/01 05:51:15;;;;;;;0.50;0.50;;;;;;;11.96;100.00;101070.53;5073483;28;20038;-58
2023/10/01 05:53:40;;;;;;;0.50;0.50;;;;;;;12.02;100.00;101066.88;5086732;28;20081;-58
2023/10/01 05:56:07;;;;;;;0.50;0.50;;;;;;;12.07;100.00;101070.31;5088360;28;20024;-57
2023/10/01 05:58:36;;;;;;;0.50;0.50;;;;;;;12.05;100.00;101078.34;5087726;28;20024;-58
2023/10/01 06:01:05;;;;;;;0.50;0.50;;;;;;;12.13;100.00;101072.84;5075765;28;20093;-57
2023/10/01 06:03:32;;;;;;;0.50;0.50;;;;;;;12.23;100.00;101072.63;5067594;28;20040;-57
2023/10/01 06:05:58;;;;;;;0.50;0.50;;;;;;;12.38;100.00;101077.59;5070650;28;20510;-57
2023/10/01 06:08:25;;;;;;;0.50;0.50;;;;;;;12.51;100.00;101080.84;5068622;28;20028;-57
2023/10/01 06:11:13;;;;;;;0.50;0.50;;;;;;;12.64;100.00;101083.22;5079008;28;20582;-57
2023/10/01 06:13:46;;;;;;;0.50;0.50;;;;;;;12.77;100.00;101079.31;5088971;28;20735;-58
2023/10/01 06:16:15;;;;;;;0.50;0.50;;;;;;;12.94;100.00;101087.81;5082977;28;20476;-58
2023/10/01 06:18:50;;;;;;;0.50;0.50;;;;;;;13.43;100.00;101076.72;5070517;28;20027;-58
2023/10/01 06:21:20;;;;;;;0.50;0.50;;;;;;;14.09;100.00;101073.91;5089152;28;20589;-57
2023/10/01 06:23:49;;;;;;;0.40;0.40;;;;;;;15.04;100.00;101073.56;5089119;28;20024;-58
2023/10/01 06:26:29;;;;;;;0.40;0.40;;;;;;;16.23;100.00;101077.22;5078184;28;20054;-58
2023/10/01 06:28:57;;;;;;;0.30;0.30;;;;;;;17.02;99.67;101070.41;5074981;28;20024;-58
2023/10/01 06:31:23;;;;;;;0.40;0.40;;;;;;;17.93;91.86;101076.22;5080520;28;20111;-58
2023/10/01 06:33:53;;;;;;;0.38;0.38;;;;;;;19.16;82.72;101072.00;5082502;28;20056;-58
2023/10/01 06:36:23;;;;;;;0.20;0.20;;;;;;;20.28;74.85;101072.28;5088355;28;20069;-58
2023/10/01 06:38:53;;;;;;;0.30;0.30;;;;;;;21.27;68.46;101072.88;5088155;28;20024;-58
2023/10/01 06:41:20;;;;;;;0.20;0.20;;;;;;;21.96;62.89;101077.56;5090132;28;20499;-58
2023/10/01 06:43:54;;;;;;;0.20;0.20;;;;;;;22.26;58.61;101074.75;5089924;28;20027;-57
2023/10/01 06:46:22;;;;;;;0.20;0.20;;;;;;;22.48;56.67;101079.69;5083469;28;20027;-57
2023/10/01 06:48:51;;;;;;;0.20;0.20;;;;;;;22.94;54.91;101082.03;5089788;28;20480;-57
2023/10/01 06:51:21;;;;;;;0.20;0.20;;;;;;;23.50;53.13;101085.47;5082091;28;20034;-57
2023/10/01 06:53:47;;;;;;;0.30;0.30;;;;;;;24.03;51.74;101086.22;5069731;28;20814;-57
2023/10/01 06:56:17;;;;;;;0.22;0.22;;;;;;;24.64;49.73;101080.78;5085695;28;20036;-58
2023/10/01 06:59:12;;;;;;;0.20;0.20;;;;;;;25.31;48.16;101087.53;5071603;28;20041;-58
2023/10/01 07:01:42;;;;;;;0.20;0.20;;;;;;;25.90;46.23;101082.88;5069445;28;20531;-57
2023/10/01 07:04:11;;;;;;;0.20;0.20;;;;;;;26.25;45.29;101089.19;5071800;28;20036;-57
2023/10/01 07:06:38;;;;;;;0.20;0.20;;;;;;;26.53;44.32;101088.69;5069172;28;20408;-57
2023/10/01 07:09:23;;;;;;;0.10;0.10;;;;;;;26.72;44.06;101101.72;5068884;28;20039;-58
2023/10/01 07:11:49;;;;;;;0.10;0.10;;;;;;;27.01;43.60;101094.72;5081578;28;20048;-57
2023/10/01 07:14:18;;;;;;;0.10;0.10;;;;;;;27.25;43.50;101098.09;5069574;28;20025;-58
2023/10/01 07:16:44;;;;;;;0.20;0.20;;;;;;;27.52;42.58;101086.72;5087692;28;20331;-58
2023/10/01 07:19:11;;;;;;;0.10;0.10;;;;;;;27.84;42.10;101093.00;5073492;28;20033;-57
2023/10/01 07:21:38;;;;;;;0.10;0.10;;;;;;;27.93;41.57;101093.09;5082514;28;20028;-57
2023/10/01 07:24:04;;;;;;;0.10;0.10;;;;;;;28.16;41.85;101089.22;5084314;28;20030;-57
2023/10/01 07:26:30;;;;;;;0.17;0.17;;;;;;;28.44;41.54;101085.75;5088591;28;20471;-57
2023/10/01 07:28:56;;;;;;;0.10;0.10;;;;;;;28.81;41.30;101096.13;5089183;28;20024;-57
2023/10/01 07:31:24;;;;;;;0.10;0.10;;;;;;;28.83;41.20;101089.50;5089082;28;20032;-57
2023/10/01 07:33:54;;;;;;;0.10;0.10;;;;;;;28.96;40.73;101094.75;5086090;28;20032;-57
2023/10/01 07:36:20;;;;;;;0.10;0.10;;;;;;;29.18;40.77;101097.25;5088435;28;20495;-57
2023/10/01 07:38:56;;;;;;;0.10;0.10;;;;;;;29.41;39.67;101098.69;5077365;28;20445;-57
2023/10/01 07:41:24;;;;;;;0.10;0.10;;;;;;;29.20;40.26;101093.38;5081379;28;20464;-57
2023/10/01 07:43:50;;;;;;;0.10;0.10;;;;;;;28.97;40.62;101094.59;5089099;28;20069;-57
2023/10/01 07:46:18;;;;;;;0.10;0.10;;;;;;;28.80;40.96;101108.13;5088908;28;20024;-57
2023/10/01 07:48:47;;;;;;;0.10;0.10;;;;;;;28.60;40.88;101103.56;5085382;28;20019;-57
2023/10/01 07:51:28;;;;;;;0.10;0.10;;;;;;;28.67;41.64;101110.19;5078040;28;20583;-57
2023/10/01 07:53:57;;;;;;;0.10;0.10;;;;;;;28.37;41.69;101111.06;5071403;28;20033;-57
2023/10/01 07:56:23;;;;;;;0.10;0.10;;;;;;;28.09;42.77;101115.38;5087312;28;20020;-57
2023/10/01 08:01:37;;;;;;;0.10;0.10;;;;;;;27.94;43.71;101108.50;5077537;28;20559;-57
2023/10/01 08:04:08;;;;;;;0.10;0.10;;;;;;;28.02;43.05;101113.31;5067994;28;20032;-57
2023/10/01 08:06:43;;;;;;;0.10;0.10;;;;;;;27.61;43.81;101105.91;5068392;28;20017;-57
2023/10/01 08:09:13;;;;;;;0.10;0.10;;;;;;;27.49;44.48;101114.31;5069154;28;20052;-57
2023/10/01 08:14:26;;;;;;;0.10;0.10;;;;;;;27.39;45.08;101113.34;5071285;28;20051;-57
2023/10/01 08:16:53;;;;;;;0.10;0.10;;;;;;;27.35;45.20;101103.72;5079994;28;20076;-57
2023/10/01 08:19:22;;;;;;;0.10;0.10;;;;;;;27.52;44.72;101109.47;5089446;28;20059;-57
2023/10/01 08:21:53;;;;;;;0.10;0.10;;;;;;;27.56;44.21;101115.53;5090301;28;20559;-57
2023/10/01 08:24:20;;;;;;;0.10;0.10;;;;;;;27.07;45.85;101114.19;5089931;28;20020;-57
2023/10/01 08:27:03;;;;;;;0.10;0.10;;;;;;;27.13;45.49;101107.34;5075905;28;20067;-57
2023/10/01 08:29:59;;;;;;;0.10;0.10;;;;;;;27.29;45.35;101107.81;5070442;28;20074;-57
2023/10/01 08:32:15;;;;;;;0.10;0.10;;;;;;;27.20;45.49;101103.94;5073552;28;20032;-57
2023/10/01 08:37:24;;;;;;;0.10;0.10;;;;;;;26.99;45.89;101102.16;5075011;28;20545;-57
2023/10/01 08:39:53;;;;;;;0.10;0.10;;;;;;;26.77;46.36;101100.34;5071824;28;20020;-57
2023/10/01 08:42:19;;;;;;;0.10;0.10;;;;;;;26.75;46.55;101106.94;5086882;28;20032;-57
2023/10/01 08:45:02;;;;;;;0.10;0.10;;;;;;;26.80;46.66;101096.50;5089406;28;20028;-57
2023/10/01 08:47:31;;;;;;;0.10;0.10;;;;;;;26.86;46.60;101104.16;5076865;28;20104;-57
2023/10/01 08:52:57;;;;;;;0.10;0.10;;;;;;;27.20;45.79;101103.06;5073235;28;20042;-57
2023/10/01 08:55:35;;;;;;;0.10;0.10;;;;;;;27.15;46.48;101102.59;5080966;28;20107;-57
2023/10/01 08:58:48;;;;;;;0.03;0.03;;;;;;;27.29;45.56;101091.41;5075731;28;20032;-57
2023/10/01 09:01:19;;;;;;;0.10;0.10;;;;;;;27.36;46.50;101087.19;5083515;28;20048;-57
2023/10/01 09:03:49;;;;;;;0.03;0.03;;;;;;;27.73;46.00;101096.66;5086045;28;20039;-57
2023/10/01 09:06:24;;;;;;;0.00;0.00;;;;;;;27.78;45.90;101099.88;5070220;28;20021;-57
2023/10/01 09:08:54;;;;;;;0.05;0.05;;;;;;;27.90;45.01;101098.84;5087036;28;20440;-57
2023/10/01 09:11:34;;;;;;;0.00;0.00;;;;;;;27.95;45.07;101096.59;5082634;28;20968;-57
2023/10/01 09:14:17;;;;;;;0.00;0.00;;;;;;;27.98;45.05;101082.63;5077659;28;20030;-57
2023/10/01 09:16:57;;;;;;;0.10;0.10;;;;;;;28.42;44.75;101085.00;5084833;28;20032;-57
2023/10/01 09:19:41;;;;;;;0.00;0.00;;;;;;;28.45;44.47;101084.72;5072460;28;20043;-57
2023/10/01 09:22:15;;;;;;;0.00;0.00;;;;;;;28.69;44.16;101086.28;5070271;28;20024;-57
2023/10/01 09:24:43;;;;;;;0.00;0.00;;;;;;;28.80;44.05;101091.69;5073391;28;20055;-56
2023/10/01 09:27:21;;;;;;;0.00;0.00;;;;;;;28.75;43.50;101085.75;5082367;28;20024;-57
2023/10/01 09:30:24;;;;;;;0.00;0.00;;;;;;;29.04;43.45;101081.19;5072917;28;20127;-57
2023/10/01 09:32:52;;;;;;;0.00;0.00;;;;;;;29.28;42.42;101078.94;5070594;28;20028;-57
2023/10/01 09:35:30;;;;;;;0.00;0.00;;;;;;;29.39;42.45;101078.81;5083062;28;20462;-57
2023/10/01 09:38:27;;;;;;;0.00;0.00;;;;;;;28.99;42.29;101067.06;5074282;28;20074;-57
2023/10/01 09:40:54;;;;;;;0.00;0.00;;;;;;;29.11;42.86;101066.81;5076826;28;20082;-56
2023/10/01 09:43:30;;;;;;;0.00;0.00;;;;;;;29.57;42.66;101066.09;5083595;28;20027;-57
2023/10/01 09:45:58;;;;;;;0.00;0.00;;;;;;;29.74;42.14;101062.63;5081936;28;20185;-57
2023/10/01 09:48:36;;;;;;;0.00;0.00;;;;;;;29.54;41.62;101060.88;5078145;28;20035;-56
2023/10/01 09:51:08;;;;;;;0.00;0.00;;;;;;;29.74;40.63;101059.03;5069696;28;20492;-57
2023/10/01 09:53:43;;;;;;;0.00;0.00;;;;;;;29.60;42.50;101052.09;5069799;28;20521;-56
2023/10/01 09:56:12;;;;;;;0.00;0.00;;;;;;;28.95;42.53;101051.88;5076524;28;20505;-57
2023/10/01 09:58:46;;;;;;;0.00;0.00;;;;;;;29.09;42.67;101046.91;5082194;28;20158;-57
2023/10/01 10:01:17;;;;;;;0.00;0.00;;;;;;;29.31;40.68;101059.44;5072810;28;20025;-57
2023/10/01 10:03:43;;;;;;;0.00;0.00;;;;;;;29.47;41.51;101051.53;5070652;28;20420;-57
2023/10/01 10:06:11;;;;;;;0.00;0.00;;;;;;;29.93;40.74;101040.66;5068156;28;20031;-57
2023/10/01 10:08:38;;;;;;;0.00;0.00;;;;;;;30.22;40.33;101044.19;5068048;28;20221;-56
2023/10/01 10:11:08;;;;;;;0.00;0.00;;;;;;;30.30;40.65;101038.81;5076159;28;20506;-55
2023/10/01 10:13:45;;;;;;;0.00;0.00;;;;;;;30.39;39.54;101040.66;5071803;28;20047;-57
2023/10/01 10:16:32;;;;;;;0.00;0.00;;;;;;;30.57;40.20;101033.34;5069521;28;20028;-57
2023/10/01 10:19:20;;;;;;;0.00;0.00;;;;;;;30.65;40.53;101029.81;5081478;28;20566;-57
2023/10/01 10:24:34;;;;;;;0.00;0.00;;;;;;;31.37;39.80;101027.03;5069364;28;20037;-57
2023/10/01 10:27:15;;;;;;;0.00;0.00;;;;;;;31.71;38.73;101031.59;5069778;28;20124;-58
2023/10/01 10:29:46;;;;;;;0.00;0.00;;;;;;;31.75;38.96;101026.63;5069674;28;20029;-58
2023/10/01 10:32:13;;;;;;;0.00;0.00;;;;;;;31.72;38.91;101033.34;5070734;28;20464;-58
2023/10/01 10:35:03;;;;;;;0.00;0.00;;;;;;;31.73;38.42;101018.56;5068704;28;20028;-58
2023/10/01 10:37:34;;;;;;;0.00;0.00;;;;;;;31.73;37.48;101023.22;5070929;28;20032;-58
2023/10/01 10:40:26;;;;;;;0.00;0.00;;;;;;;31.61;37.88;101016.22;5087260;28;20608;-58
2023/10/01 10:42:58;;;;;;;0.00;0.00;;;;;;;31.74;38.44;100997.41;5076972;28;20095;-58
2023/10/01 10:45:48;;;;;;;0.00;0.00;;;;;;;32.21;37.17;101015.25;5071811;28;20029;-58
2023/10/01 10:48:16;;;;;;;0.00;0.00;;;;;;;32.12;37.37;101013.50;5071476;28;20042;-58
2023/10/01 10:50:46;;;;;;;0.00;0.00;;;;;;;32.25;37.24;101000.16;5068022;28;20868;-58
2023/10/01 10:53:23;;;;;;;0.00;0.00;;;;;;;32.19;37.92;101003.56;5070546;28;20029;-58
2023/10/01 10:55:54;;;;;;;0.00;0.00;;;;;;;32.52;37.89;101002.69;5076588;28;20025;-58
2023/10/01 10:58:24;;;;;;;0.00;0.00;;;;;;;32.51;37.43;101009.25;5070315;28;20036;-58
2023/10/01 11:00:51;;;;;;;0.00;0.00;;;;;;;32.37;36.72;101008.97;5067769;28;20021;-58
2023/10/01 11:03:38;;;;;;;0.00;0.00;;;;;;;32.65;36.51;101014.13;5067791;28;20036;-58
2023/10/01 11:06:21;;;;;;;0.00;0.00;;;;;;;32.26;38.04;101009.28;5067791;28;20552;-58
2023/10/01 11:08:51;;;;;;;0.00;0.00;;;;;;;32.29;37.94;101012.53;5076552;28;20396;-58
2023/10/01 11:11:30;;;;;;;0.00;0.00;;;;;;;32.33;37.85;101007.56;5080018;28;20048;-58
2023/10/01 11:14:00;;;;;;;0.00;0.00;;;;;;;32.54;37.51;101008.91;5088404;28;20040;-58
2023/10/01 11:16:33;;;;;;;0.00;0.00;;;;;;;33.01;36.63;101000.97;5085092;28;20703;-59
2023/10/01 11:19:15;;;;;;;0.00;0.00;;;;;;;33.13;36.77;101000.47;5069242;28;20110;-58
2023/10/01 11:21:54;;;;;;;0.00;0.00;;;;;;;33.05;37.57;100994.94;5087367;28;20099;-58
2023/10/01 11:24:25;;;;;;;0.00;0.00;;;;;;;33.52;36.75;100989.66;5089457;28;20028;-58
2023/10/01 11:27:11;;;;;;;0.00;0.00;;;;;;;33.73;36.03;100991.84;5074687;28;20020;-59
2023/10/01 11:29:39;;;;;;;0.00;0.00;;;;;;;32.93;36.25;100990.78;5069227;28;20021;-58
2023/10/01 11:32:05;;;;;;;0.00;0.00;;;;;;;32.71;36.99;100988.66;5069044;28;20610;-58
2023/10/01 11:34:45;;;;;;;0.00;0.00;;;;;;;32.77;37.02;100985.22;5075562;28;20073;-58
2023/10/01 11:37:17;;;;;;;0.00;0.00;;;;;;;32.90;36.65;100977.34;5081228;28;20024;-58
2023/10/01 11:39:49;;;;;;;0.00;0.00;;;;;;;32.71;36.59;100976.75;5070647;28;20074;-58
2023/10/01 11:42:38;;;;;;;0.00;0.00;;;;;;;32.33;36.90;100966.25;5088698;28;20839;-58
2023/10/01 11:45:28;;;;;;;0.00;0.00;;;;;;;32.26;37.22;100967.97;5088822;28;20029;-58
2023/10/01 11:48:19;;;;;;;0.00;0.00;;;;;;;31.84;37.51;100962.38;5071660;28;20029;-58
2023/10/01 11:50:51;;;;;;;0.00;0.00;;;;;;;31.49;37.41;100951.47;5072213;28;20367;-58
2023/10/01 11:53:28;;;;;;;0.00;0.00;;;;;;;31.52;38.25;100953.91;5076134;28;20182;-59
2023/10/01 11:56:02;;;;;;;0.00;0.00;;;;;;;31.36;37.88;100953.78;5085557;28;20482;-59
2023/10/01 11:58:29;;;;;;;0.00;0.00;;;;;;;31.66;37.45;100953.34;5085291;28;20034;-58
2023/10/01 12:00:59;;;;;;;0.00;0.00;;;;;;;31.93;37.29;100943.03;5072266;28;20028;-59
2023/10/01 12:03:25;;;;;;;0.00;0.00;;;;;;;32.20;36.38;100950.22;5071750;28;20444;-58
2023/10/01 12:05:56;;;;;;;0.00;0.00;;;;;;;32.40;35.88;100939.81;5072436;28;20490;-59
2023/10/01 12:08:34;;;;;;;0.00;0.00;;;;;;;32.37;35.73;100938.25;5074929;28;20024;-58
2023/10/01 12:11:26;;;;;;;0.00;0.00;;;;;;;32.14;37.31;100934.38;5081365;28;20064;-59
2023/10/01 12:14:04;;;;;;;0.00;0.00;;;;;;;32.00;36.96;100932.22;5082131;28;20051;-58
2023/10/01 12:16:29;;;;;;;;;;;;;;;32.45;36.75;100930.03;5092784;28;20046;-59
2023/10/01 12:19:17;;;;;;;0.00;0.00;;;;;;;32.90;35.91;100930.47;5091847;28;20037;-59
2023/10/01 12:21:40;;;;;;;0.00;0.00;;;;;;;33.30;35.42;100919.47;5074227;28;20106;-59
2023/10/01 12:24:12;;;;;;;0.00;0.00;;;;;;;33.36;34.90;100910.47;5072263;28;20127;-59